Time;durP1;ratioP1;P1;durP2;ratioP2;P2;SDS_P1;SDS_P2;PMS_P1;PMS_P2;Temp;Humidity;BMP_temperature;BMP_pressure;BME280_temperature;BME280_humidity;BME280_pressure;Samples;Min_cycle;Max_cycle;Signal;HPM_P1;HPM_P2
2022/07/14 00:01:42;;;;;;;0.70;0.50;;;21.70;64.10;;;;;;5095355;28;20052;-71
2022/07/14 00:04:08;;;;;;;5.47;0.50;;;21.90;63.80;;;;;;5093874;28;20039;-70
2022/07/14 00:06:34;;;;;;;4.13;0.70;;;22.30;62.90;;;;;;5069480;28;20507;-70
2022/07/14 00:09:01;;;;;;;1.00;0.40;;;22.00;63.50;;;;;;5073975;28;20633;-71
2022/07/14 00:11:27;;;;;;;2.03;0.70;;;21.90;64.00;;;;;;5075368;28;20044;-71
2022/07/14 00:13:53;;;;;;;2.95;0.60;;;21.90;63.90;;;;;;5057242;28;20033;-71
2022/07/14 00:16:19;;;;;;;3.15;0.63;;;22.00;63.50;;;;;;5075471;28;20232;-71
2022/07/14 00:18:45;;;;;;;1.77;0.70;;;22.00;63.60;;;;;;5075485;28;20047;-71
2022/07/14 00:21:15;;;;;;;3.95;0.70;;;22.10;63.10;;;;;;5075185;28;20033;-71
2022/07/14 00:23:43;;;;;;;1.33;0.77;;;22.10;63.50;;;;;;5074825;28;20049;-71
2022/07/14 00:26:10;;;;;;;2.90;0.60;;;22.10;63.60;;;;;;5075090;28;20043;-71
2022/07/14 00:28:36;;;;;;;3.40;1.02;;;22.10;63.10;;;;;;5057263;28;20040;-71
2022/07/14 00:31:10;;;;;;;2.63;0.60;;;22.30;62.70;;;;;;5057135;28;20040;-71
2022/07/14 00:33:36;;;;;;;0.60;0.40;;;22.50;62.10;;;;;;5075113;28;20577;-71
2022/07/14 00:36:02;;;;;;;0.93;0.50;;;22.70;61.30;;;;;;5074923;28;20123;-71
2022/07/14 00:38:28;;;;;;;0.77;0.50;;;22.80;60.80;;;;;;5074822;28;20586;-71
2022/07/14 00:40:54;;;;;;;1.65;0.70;;;22.40;63.60;;;;;;5074715;28;20123;-71
2022/07/14 00:43:20;;;;;;;1.00;0.50;;;21.30;65.80;;;;;;5074456;28;20052;-71
2022/07/14 00:45:45;;;;;;;2.13;0.65;;;20.90;67.40;;;;;;5074805;28;20418;-70
2022/07/14 00:48:12;;;;;;;2.38;0.50;;;20.80;70.50;;;;;;5074855;28;20047;-71
2022/07/14 00:50:41;;;;;;;0.63;0.38;;;20.70;67.90;;;;;;5074774;28;20071;-71
2022/07/14 00:53:08;;;;;;;1.60;0.60;;;20.70;67.50;;;;;;5074742;28;20055;-71
2022/07/14 00:55:42;;;;;;;1.20;0.50;;;20.80;67.50;;;;;;5074768;28;20041;-71
2022/07/14 00:58:08;;;;;;;2.97;0.73;;;20.80;67.30;;;;;;5074512;28;20036;-71
2022/07/14 01:00:34;;;;;;;1.00;0.60;;;21.00;66.50;;;;;;5074454;28;20406;-71
2022/07/14 01:03:00;;;;;;;2.45;0.70;;;21.40;65.20;;;;;;5056201;28;20049;-71
2022/07/14 01:05:25;;;;;;;3.08;0.70;;;21.50;64.90;;;;;;5074367;28;20025;-71
2022/07/14 01:07:51;;;;;;;0.55;0.40;;;21.60;64.30;;;;;;5056475;28;20043;-70
2022/07/14 01:10:17;;;;;;;1.80;0.60;;;21.70;64.10;;;;;;5074345;28;20045;-71
2022/07/14 01:12:47;;;;;;;2.50;0.50;;;21.50;65.30;;;;;;5074240;28;20068;-71
2022/07/14 01:15:20;;;;;;;2.50;0.80;;;21.40;66.40;;;;;;5074229;28;20052;-71
2022/07/14 01:17:47;;;;;;;0.70;0.50;;;21.30;66.80;;;;;;5074192;28;20039;-71
2022/07/14 01:20:14;;;;;;;4.57;0.77;;;21.30;66.30;;;;;;5074125;28;20032;-70
2022/07/14 01:22:40;;;;;;;0.85;0.50;;;21.10;66.80;;;;;;5073869;28;20078;-71
2022/07/14 01:25:07;;;;;;;1.98;0.65;;;20.90;67.70;;;;;;5073728;28;20028;-71
2022/07/14 01:27:33;;;;;;;1.90;0.70;;;20.80;68.10;;;;;;5073935;28;20052;-70
2022/07/14 01:29:59;;;;;;;2.58;0.82;;;20.90;67.60;;;;;;5055862;28;20072;-71
2022/07/14 01:32:25;;;;;;;1.63;0.70;;;21.20;66.90;;;;;;5055839;28;20037;-71
2022/07/14 01:34:52;;;;;;;1.05;0.55;;;21.40;66.10;;;;;;5073704;28;20435;-71
2022/07/14 01:37:18;;;;;;;1.85;0.60;;;21.30;66.70;;;;;;5073772;28;20044;-71
2022/07/14 01:39:44;;;;;;;1.90;0.63;;;20.90;68.10;;;;;;5073653;28;20567;-71
2022/07/14 01:42:10;;;;;;;1.00;0.70;;;20.70;69.20;;;;;;5055451;28;20127;-71
2022/07/14 01:44:35;;;;;;;6.13;0.80;;;20.60;69.10;;;;;;5055579;28;20048;-71
2022/07/14 01:47:01;;;;;;;2.90;0.60;;;20.70;68.40;;;;;;5073597;28;20131;-71
2022/07/14 01:49:28;;;;;;;3.03;0.80;;;20.90;68.70;;;;;;5073600;28;20040;-70
2022/07/14 01:51:54;;;;;;;2.10;0.60;;;20.90;68.90;;;;;;5073009;28;20100;-71
2022/07/14 01:54:20;;;;;;;3.78;0.80;;;21.00;68.30;;;;;;5055490;28;20044;-71
2022/07/14 01:56:45;;;;;;;2.05;0.95;;;21.30;66.90;;;;;;5073049;28;20507;-71
2022/07/14 01:59:11;;;;;;;6.93;0.80;;;21.70;66.10;;;;;;5072277;28;20616;-71
2022/07/14 02:01:40;;;;;;;1.55;0.60;;;21.90;65.40;;;;;;5072947;28;20055;-71
2022/07/14 02:04:13;;;;;;;3.25;0.70;;;22.10;78.30;;;;;;5071693;28;20078;-71
2022/07/14 02:06:53;;;;;;;3.33;0.75;;;22.00;80.20;;;;;;5073200;28;20506;-71
2022/07/14 02:09:20;;;;;;;0.87;0.60;;;21.70;79.10;;;;;;5086713;28;20044;-71
2022/07/14 02:14:33;;;;;;;1.15;0.77;;;21.50;79.00;;;;;;5082141;28;20561;-71
2022/07/14 02:16:59;;;;;;;4.10;0.80;;;21.50;79.60;;;;;;5055529;28;20514;-71
2022/07/14 02:19:25;;;;;;;2.92;0.73;;;21.10;80.60;;;;;;5073309;28;20542;-71
2022/07/14 02:21:52;;;;;;;2.55;0.70;;;20.70;70.00;;;;;;5054928;28;20040;-71
2022/07/14 02:24:19;;;;;;;0.93;0.77;;;20.50;72.60;;;;;;5072874;28;20044;-71
2022/07/14 02:26:44;;;;;;;1.90;0.63;;;20.50;70.60;;;;;;5054997;28;20086;-71
2022/07/14 02:29:11;;;;;;;2.67;0.43;;;20.70;70.70;;;;;;5073071;28;20131;-71
2022/07/14 02:31:37;;;;;;;0.98;0.52;;;20.80;70.30;;;;;;5073163;28;20596;-71
2022/07/14 02:34:04;;;;;;;2.03;0.73;;;21.00;69.70;;;;;;5055481;28;20063;-71
2022/07/14 02:36:30;;;;;;;1.95;0.60;;;21.20;69.10;;;;;;5072847;28;20039;-71
2022/07/14 02:38:56;;;;;;;0.90;0.70;;;21.50;68.20;;;;;;5054507;28;20465;-71
2022/07/14 02:41:22;;;;;;;1.08;0.80;;;21.70;67.70;;;;;;5072340;28;20051;-71
2022/07/14 02:43:48;;;;;;;3.45;0.85;;;21.60;67.90;;;;;;5054529;28;20402;-71
2022/07/14 02:46:14;;;;;;;2.42;0.50;;;21.60;68.60;;;;;;5072683;28;20120;-71
2022/07/14 02:48:40;;;;;;;2.25;0.88;;;21.00;70.50;;;;;;5072795;28;20127;-71
2022/07/14 02:51:07;;;;;;;1.33;0.70;;;20.70;71.30;;;;;;5072751;28;20040;-71
2022/07/14 02:56:55;;;;;;;1.10;0.80;;;20.60;71.20;;;;;;5073000;28;20035;-71
2022/07/14 02:59:20;;;;;;;3.88;0.82;;;20.90;70.60;;;;;;5072453;28;20044;-71
2022/07/14 03:01:46;;;;;;;2.60;0.90;;;21.00;69.90;;;;;;5072603;28;20466;-71
2022/07/14 03:04:12;;;;;;;1.38;0.85;;;21.30;69.60;;;;;;5074910;28;20372;-71
2022/07/14 03:06:38;;;;;;;3.10;0.60;;;21.40;69.20;;;;;;5076764;28;20044;-71
2022/07/14 03:09:03;;;;;;;1.30;0.68;;;21.20;70.70;;;;;;5076781;28;20036;-71
2022/07/14 03:11:29;;;;;;;8.43;1.00;;;20.90;71.60;;;;;;5058616;28;20036;-71
2022/07/14 03:13:55;;;;;;;1.17;0.88;;;20.90;70.90;;;;;;5058687;28;20124;-71
2022/07/14 03:16:21;;;;;;;5.00;0.85;;;21.00;70.40;;;;;;5058587;28;20097;-71
2022/07/14 03:18:46;;;;;;;2.72;0.73;;;21.00;71.40;;;;;;5076478;28;20052;-71
2022/07/14 03:21:12;;;;;;;1.77;0.65;;;20.70;72.10;;;;;;5076429;28;20120;-71
2022/07/14 03:23:39;;;;;;;1.17;0.73;;;21.00;71.20;;;;;;5058384;28;20083;-71
2022/07/14 03:26:04;;;;;;;5.70;0.85;;;21.10;71.00;;;;;;5078565;28;20032;-71
2022/07/14 03:28:31;;;;;;;1.42;0.80;;;21.10;71.50;;;;;;5079947;28;20094;-71
2022/07/14 03:30:57;;;;;;;2.95;0.90;;;21.10;71.40;;;;;;5096488;28;20439;-71
2022/07/14 03:33:24;;;;;;;3.05;0.80;;;21.30;71.20;;;;;;5096293;28;20044;-71
2022/07/14 03:35:50;;;;;;;2.53;0.60;;;21.50;70.40;;;;;;5095987;28;20055;-71
2022/07/14 03:38:16;;;;;;;1.30;0.73;;;21.40;71.10;;;;;;5096500;28;20040;-71
2022/07/14 03:40:42;;;;;;;1.20;0.70;;;21.00;72.30;;;;;;5078309;28;20039;-71
2022/07/14 03:43:08;;;;;;;1.33;0.90;;;21.10;71.30;;;;;;5077925;28;20075;-71
2022/07/14 03:45:34;;;;;;;1.10;0.60;;;21.10;71.70;;;;;;5078095;28;20040;-71
2022/07/14 03:48:00;;;;;;;1.50;0.93;;;21.00;71.70;;;;;;5077643;28;20039;-71
2022/07/14 03:50:25;;;;;;;4.63;0.82;;;21.00;72.10;;;;;;5095858;28;20043;-71
2022/07/14 03:52:51;;;;;;;1.35;0.90;;;21.10;72.20;;;;;;5077549;28;20040;-71
2022/07/14 03:55:17;;;;;;;1.58;0.82;;;21.00;72.40;;;;;;5095862;28;20048;-71
2022/07/14 03:57:43;;;;;;;0.93;0.70;;;20.90;72.60;;;;;;5095662;28;20439;-71
2022/07/14 04:00:10;;;;;;;3.65;0.90;;;20.90;72.70;;;;;;5095613;28;20190;-71
2022/07/14 04:02:36;;;;;;;1.58;0.70;;;21.00;72.90;;;;;;5095819;28;20043;-71
2022/07/14 04:05:02;;;;;;;2.72;1.00;;;21.00;74.00;;;;;;5095877;28;20115;-71
2022/07/14 04:07:28;;;;;;;1.65;1.00;;;21.00;73.30;;;;;;5094244;28;20384;-71
2022/07/14 04:09:54;;;;;;;4.97;1.20;;;21.00;71.40;;;;;;5069230;28;20137;-71
2022/07/14 04:12:20;;;;;;;1.77;0.80;;;21.00;71.00;;;;;;5086587;28;20079;-71
2022/07/14 04:14:46;;;;;;;3.97;0.90;;;20.90;71.20;;;;;;5094791;28;20070;-71
2022/07/14 04:17:12;;;;;;;1.10;0.82;;;20.90;71.20;;;;;;5095383;28;20054;-71
2022/07/14 04:19:38;;;;;;;3.78;0.82;;;21.00;71.20;;;;;;5095482;28;20036;-71
2022/07/14 04:22:05;;;;;;;1.60;0.82;;;21.00;71.60;;;;;;5091703;28;20057;-71
2022/07/14 04:24:31;;;;;;;2.45;0.73;;;21.10;71.50;;;;;;5083234;28;20564;-71
2022/07/14 04:26:57;;;;;;;1.42;0.90;;;20.90;73.00;;;;;;5095487;28;20032;-71
2022/07/14 04:29:23;;;;;;;2.80;0.73;;;20.70;73.40;;;;;;5095390;28;20047;-71
2022/07/14 04:31:48;;;;;;;1.75;0.60;;;20.70;73.10;;;;;;5095320;28;20065;-71
2022/07/14 04:34:14;;;;;;;3.38;1.25;;;20.90;72.20;;;;;;5077334;28;20130;-71
2022/07/14 04:36:40;;;;;;;2.33;0.80;;;20.90;72.30;;;;;;5095253;28;20055;-71
2022/07/14 04:39:06;;;;;;;1.55;0.65;;;21.30;70.20;;;;;;5095346;28;20047;-70
2022/07/14 04:41:38;;;;;;;2.15;0.80;;;21.60;69.40;;;;;;5094984;28;20032;-72
2022/07/14 04:44:04;;;;;;;7.32;0.88;;;21.50;71.30;;;;;;5094924;28;20055;-71
2022/07/14 04:46:30;;;;;;;3.50;0.82;;;21.20;73.80;;;;;;5094954;28;20043;-71
2022/07/14 04:54:24;;;;;;;4.60;0.80;;;20.60;76.00;;;;;;5093150;28;20084;-70
2022/07/14 04:56:50;;;;;;;2.83;0.65;;;20.60;74.90;;;;;;5074336;28;20416;-71
2022/07/14 04:59:16;;;;;;;2.88;0.90;;;20.40;75.50;;;;;;5074577;28;20079;-71
2022/07/14 05:01:41;;;;;;;8.13;1.52;;;20.40;74.60;;;;;;5074561;28;20127;-70
2022/07/14 05:04:08;;;;;;;5.28;0.85;;;20.50;74.70;;;;;;5073565;28;20056;-69
2022/07/14 05:06:33;;;;;;;2.60;0.70;;;20.80;73.00;;;;;;5073233;28;20102;-69
2022/07/14 05:08:59;;;;;;;1.92;0.93;;;21.00;72.70;;;;;;5054387;28;20534;-70
2022/07/14 05:11:25;;;;;;;6.18;1.00;;;21.10;72.70;;;;;;5074214;28;20499;-69
2022/07/14 05:13:54;;;;;;;2.35;0.70;;;21.10;73.90;;;;;;5056310;28;20036;-69
2022/07/14 05:16:20;;;;;;;0.88;0.70;;;21.10;73.70;;;;;;5072864;28;20514;-70
2022/07/14 05:18:48;;;;;;;1.50;0.82;;;21.00;75.50;;;;;;5071492;28;20039;-70
2022/07/14 05:21:14;;;;;;;4.40;1.60;;;20.90;78.80;;;;;;5073727;28;20085;-70
2022/07/14 05:23:41;;;;;;;2.83;1.10;;;21.10;77.20;;;;;;5073314;28;20056;-70
2022/07/14 05:26:13;;;;;;;3.17;1.00;;;21.10;76.20;;;;;;5071405;28;20498;-70
2022/07/14 05:28:40;;;;;;;1.95;0.90;;;21.10;78.70;;;;;;5071588;28;20051;-69
2022/07/14 05:31:07;;;;;;;1.15;0.70;;;21.00;79.10;;;;;;5072322;28;20072;-70
2022/07/14 05:33:33;;;;;;;1.42;0.90;;;21.30;77.20;;;;;;5071833;28;20051;-70
2022/07/14 05:35:59;;;;;;;1.83;0.82;;;21.50;77.30;;;;;;5053652;28;20043;-70
2022/07/14 05:38:24;;;;;;;1.80;0.80;;;21.80;74.20;;;;;;5066874;28;20032;-70
2022/07/14 05:40:51;;;;;;;2.33;0.82;;;22.10;74.10;;;;;;5093962;28;20056;-70
2022/07/14 05:43:19;;;;;;;1.38;0.90;;;22.40;74.70;;;;;;5074704;28;20064;-70
2022/07/14 05:45:45;;;;;;;1.10;0.80;;;22.30;75.70;;;;;;5091371;28;20035;-70
2022/07/14 05:48:11;;;;;;;2.05;1.05;;;22.10;75.70;;;;;;5091665;28;20047;-71
2022/07/14 05:50:37;;;;;;;2.33;1.17;;;22.00;78.80;;;;;;5092062;28;20513;-71
2022/07/14 05:53:02;;;;;;;1.17;0.50;;;21.90;79.20;;;;;;5091627;28;20048;-71
2022/07/14 05:55:28;;;;;;;1.73;0.80;;;22.00;79.30;;;;;;5091828;28;20050;-70
2022/07/14 05:57:54;;;;;;;1.17;0.93;;;22.00;78.80;;;;;;5091549;28;20052;-71
2022/07/14 06:00:20;;;;;;;2.20;1.00;;;22.20;79.30;;;;;;5073466;28;20039;-70
2022/07/14 06:02:46;;;;;;;1.23;0.80;;;22.40;79.70;;;;;;5090978;28;20533;-71
2022/07/14 06:05:12;;;;;;;2.00;1.00;;;22.50;78.80;;;;;;5092864;28;20453;-71
2022/07/14 06:07:38;;;;;;;1.23;0.70;;;22.70;78.00;;;;;;5073836;28;20130;-71
2022/07/14 06:10:05;;;;;;;2.10;0.68;;;23.00;77.70;;;;;;5091706;28;20067;-70
2022/07/14 06:12:32;;;;;;;1.75;0.73;;;23.30;77.60;;;;;;5091443;28;20032;-71
2022/07/14 06:14:58;;;;;;;2.45;1.00;;;23.50;76.70;;;;;;5074164;28;20032;-71
2022/07/14 06:17:24;;;;;;;2.88;1.10;;;23.70;77.50;;;;;;5092879;28;20036;-71
2022/07/14 06:19:50;;;;;;;1.23;0.70;;;23.70;91.20;;;;;;5093136;28;20048;-71
2022/07/14 06:22:16;;;;;;;3.10;0.90;;;23.90;85.70;;;;;;5092799;28;20052;-71
2022/07/14 06:24:42;;;;;;;2.10;1.00;;;24.80;73.00;;;;;;5090896;28;20028;-71
2022/07/14 06:27:08;;;;;;;2.95;1.02;;;25.10;76.10;;;;;;5091007;28;20039;-71
2022/07/14 06:29:34;;;;;;;2.55;0.93;;;25.50;76.00;;;;;;5072930;28;20445;-71
2022/07/14 06:32:03;;;;;;;1.33;1.00;;;25.80;75.30;;;;;;5090402;28;20066;-71
2022/07/14 06:34:29;;;;;;;5.30;0.82;;;26.00;77.70;;;;;;5090852;28;20028;-71
2022/07/14 06:36:55;;;;;;;1.15;0.98;;;26.00;78.10;;;;;;5091066;28;20036;-71
2022/07/14 06:39:21;;;;;;;2.30;0.77;;;25.90;80.50;;;;;;5074844;28;20100;-71
2022/07/14 06:41:46;;;;;;;3.38;1.00;;;25.80;77.80;;;;;;5073486;28;20061;-71
2022/07/14 06:44:13;;;;;;;4.57;0.80;;;25.80;78.30;;;;;;5091126;28;20522;-71
2022/07/14 06:46:39;;;;;;;5.05;1.15;;;26.10;78.80;;;;;;5072597;28;20040;-71
2022/07/14 06:49:05;;;;;;;9.05;0.90;;;25.90;76.90;;;;;;5073160;28;20043;-71
2022/07/14 06:51:31;;;;;;;4.90;1.10;;;25.60;78.20;;;;;;5091048;28;20414;-71
2022/07/14 06:53:57;;;;;;;2.65;1.00;;;26.20;78.50;;;;;;5091381;28;20097;-72
2022/07/14 06:56:23;;;;;;;1.70;0.70;;;26.50;76.10;;;;;;5092748;28;20115;-72
2022/07/14 06:58:49;;;;;;;1.77;1.08;;;26.80;73.90;;;;;;5090966;28;20040;-71
2022/07/14 07:01:15;;;;;;;2.75;0.90;;;27.20;72.60;;;;;;5090422;28;20028;-72
2022/07/14 07:03:40;;;;;;;2.00;0.80;;;27.20;73.40;;;;;;5072329;28;20400;-72
2022/07/14 07:08:52;;;;;;;2.83;0.77;;;26.90;74.00;;;;;;5091501;28;20051;-72
2022/07/14 07:11:18;;;;;;;3.67;1.10;;;26.70;75.10;;;;;;5090936;28;20040;-72
2022/07/14 07:13:44;;;;;;;3.40;0.85;;;26.50;73.20;;;;;;5072249;28;20032;-72
2022/07/14 07:16:10;;;;;;;2.95;0.93;;;26.40;75.70;;;;;;5092269;28;20073;-72
2022/07/14 07:18:37;;;;;;;2.83;0.98;;;26.50;70.50;;;;;;5090883;28;20028;-72
2022/07/14 07:21:04;;;;;;;3.47;0.85;;;26.80;66.90;;;;;;5090641;28;20046;-72
2022/07/14 07:23:32;;;;;;;3.75;1.00;;;26.90;67.20;;;;;;5090382;28;20094;-72
2022/07/14 07:25:58;;;;;;;1.67;0.63;;;27.50;65.30;;;;;;5090495;28;20097;-73
2022/07/14 07:28:24;;;;;;;2.10;1.02;;;27.60;66.10;;;;;;5090541;28;20036;-70
2022/07/14 07:30:50;;;;;;;2.13;1.20;;;28.10;64.80;;;;;;5090333;28;20055;-70
2022/07/14 07:33:16;;;;;;;3.40;1.20;;;28.20;62.20;;;;;;5072425;28;20058;-70
2022/07/14 07:35:45;;;;;;;2.42;0.98;;;28.10;62.30;;;;;;5090515;28;20375;-70
2022/07/14 07:38:12;;;;;;;0.90;0.70;;;28.30;63.30;;;;;;5090548;28;20036;-70
2022/07/14 07:40:38;;;;;;;1.48;0.80;;;28.20;61.50;;;;;;5091873;28;20040;-70
2022/07/14 07:43:04;;;;;;;1.17;0.73;;;28.80;63.50;;;;;;5089607;28;20060;-71
2022/07/14 07:45:31;;;;;;;3.70;0.75;;;28.40;61.40;;;;;;5090289;28;20032;-70
2022/07/14 07:47:57;;;;;;;1.10;0.80;;;28.40;63.20;;;;;;5091800;28;20032;-71
2022/07/14 07:50:23;;;;;;;3.28;0.90;;;29.30;64.10;;;;;;5076796;28;20097;-71
2022/07/14 07:52:51;;;;;;;2.38;0.93;;;29.80;65.70;;;;;;5096168;28;20521;-70
2022/07/14 07:55:17;;;;;;;2.08;1.10;;;29.90;66.00;;;;;;5094650;28;20093;-70
2022/07/14 07:57:43;;;;;;;1.63;1.00;;;29.90;66.70;;;;;;5093490;28;20491;-70
2022/07/14 08:00:10;;;;;;;2.47;0.80;;;30.00;69.20;;;;;;5093872;28;20130;-70
2022/07/14 08:02:44;;;;;;;2.25;0.80;;;30.20;69.80;;;;;;5094237;28;20063;-71
2022/07/14 08:05:10;;;;;;;1.92;0.77;;;30.20;69.00;;;;;;5093885;28;20402;-71
2022/07/14 08:07:37;;;;;;;1.50;0.95;;;30.50;68.80;;;;;;5094023;28;20044;-70
2022/07/14 08:10:03;;;;;;;1.30;0.80;;;30.60;68.00;;;;;;5094997;28;20028;-70
2022/07/14 08:12:29;;;;;;;2.13;0.85;;;30.70;65.10;;;;;;5091992;28;20062;-71
2022/07/14 08:14:55;;;;;;;4.70;1.00;;;30.80;66.50;;;;;;5074083;28;20123;-72
2022/07/14 08:17:22;;;;;;;1.80;1.00;;;31.00;66.00;;;;;;5056495;28;20037;-71
2022/07/14 08:19:50;;;;;;;3.85;0.95;;;31.10;65.90;;;;;;5075243;28;20146;-71
2022/07/14 08:22:23;;;;;;;3.60;1.00;;;30.80;66.10;;;;;;5075161;28;20143;-72
2022/07/14 08:24:48;;;;;;;1.00;0.90;;;30.90;68.30;;;;;;5074637;28;20041;-71
2022/07/14 08:27:14;;;;;;;2.55;0.77;;;30.90;66.40;;;;;;5072971;28;20537;-71
2022/07/14 08:29:42;;;;;;;1.38;0.70;;;31.40;66.80;;;;;;5073150;28;20045;-72
2022/07/14 08:32:08;;;;;;;1.75;0.90;;;31.50;65.00;;;;;;5074219;28;20040;-72
2022/07/14 08:34:33;;;;;;;2.10;0.85;;;31.20;65.00;;;;;;5073866;28;20123;-72
2022/07/14 08:36:59;;;;;;;3.13;0.82;;;31.60;63.10;;;;;;5072878;28;20452;-72
2022/07/14 08:39:27;;;;;;;4.35;1.10;;;31.40;64.30;;;;;;5055204;28;20127;-72
2022/07/14 08:41:54;;;;;;;8.50;1.27;;;31.60;66.30;;;;;;5056764;28;20564;-72
2022/07/14 08:44:22;;;;;;;1.75;0.80;;;31.80;65.80;;;;;;5073961;28;20032;-72
2022/07/14 08:46:48;;;;;;;6.25;0.95;;;31.80;61.00;;;;;;5072283;28;20024;-75
2022/07/14 08:49:14;;;;;;;2.38;1.00;;;31.70;61.90;;;;;;5073837;28;20085;-74
2022/07/14 08:51:42;;;;;;;2.53;1.00;;;31.70;62.30;;;;;;5074273;28;20040;-74
2022/07/14 08:54:09;;;;;;;0.73;0.60;;;31.80;61.50;;;;;;5072952;28;20507;-75
2022/07/14 08:56:39;;;;;;;3.67;0.88;;;32.00;64.30;;;;;;5074444;28;20032;-73
2022/07/14 08:59:06;;;;;;;4.78;1.20;;;31.90;61.30;;;;;;5079478;28;20040;-73
2022/07/14 09:01:33;;;;;;;4.32;1.00;;;32.10;60.90;;;;;;5092443;28;20394;-72
2022/07/14 09:03:59;;;;;;;1.20;0.90;;;31.90;61.20;;;;;;5093703;28;20075;-73
2022/07/14 09:06:52;;;;;;;7.25;1.17;;;32.30;63.20;;;;;;5092609;28;20110;-72
2022/07/14 09:09:21;;;;;;;3.80;0.90;;;32.10;59.60;;;;;;5092420;28;20036;-73
2022/07/14 09:11:51;;;;;;;3.03;1.00;;;32.20;62.80;;;;;;5092215;28;20039;-73
2022/07/14 09:14:17;;;;;;;3.45;0.80;;;32.10;61.40;;;;;;5092068;28;20121;-73
2022/07/14 09:16:43;;;;;;;1.33;0.70;;;32.30;61.10;;;;;;5093506;28;20047;-73
2022/07/14 09:19:13;;;;;;;0.82;0.60;;;32.30;59.70;;;;;;5093412;28;20086;-73
2022/07/14 09:21:43;;;;;;;2.40;0.65;;;32.50;60.50;;;;;;5091992;28;20032;-73
2022/07/14 09:24:09;;;;;;;;;;;32.60;60.00;;;;;;5074557;28;20054;-73
2022/07/14 09:26:47;;;;;;;0.95;0.82;;;33.10;61.20;;;;;;5074304;28;20392;-74
2022/07/14 09:29:23;;;;;;;1.83;0.60;;;33.40;59.90;;;;;;5091692;28;20044;-74
2022/07/14 09:31:49;;;;;;;1.95;0.85;;;33.30;59.80;;;;;;5091906;28;20404;-72
2022/07/14 09:34:31;;;;;;;1.65;0.90;;;33.10;58.80;;;;;;5091835;28;20043;-73
2022/07/14 09:37:18;;;;;;;5.18;0.73;;;33.10;59.90;;;;;;5091608;28;20036;-73
2022/07/14 09:39:55;;;;;;;2.83;1.00;;;33.20;61.30;;;;;;5091179;28;20055;-73
2022/07/14 09:42:26;;;;;;;1.98;1.10;;;33.10;58.80;;;;;;5072278;28;20148;-73
2022/07/14 09:45:09;;;;;;;2.22;1.00;;;33.30;60.30;;;;;;5091271;28;20038;-74
2022/07/14 09:47:51;;;;;;;3.72;0.88;;;33.30;58.70;;;;;;5092238;28;20118;-73
2022/07/14 09:50:32;;;;;;;3.92;1.00;;;33.20;59.80;;;;;;5091484;28;20077;-73
2022/07/14 09:52:58;;;;;;;1.00;0.90;;;33.50;61.10;;;;;;5089177;28;20047;-73
2022/07/14 09:55:24;;;;;;;3.85;1.30;;;33.90;61.30;;;;;;5072819;28;20032;-74
2022/07/14 09:57:52;;;;;;;2.20;1.15;;;33.80;60.40;;;;;;5070104;28;20063;-73
2022/07/14 10:00:19;;;;;;;3.83;1.10;;;33.70;61.10;;;;;;5071354;28;20395;-74
2022/07/14 10:02:46;;;;;;;1.17;0.88;;;33.70;61.60;;;;;;5053442;28;20055;-74
2022/07/14 10:05:14;;;;;;;4.18;0.88;;;33.40;59.80;;;;;;5071428;28;20040;-72
2022/07/14 10:07:41;;;;;;;4.93;1.52;;;33.50;60.60;;;;;;5071264;28;20033;-74
2022/07/14 10:10:15;;;;;;;2.45;0.95;;;33.20;59.20;;;;;;5071590;28;20028;-73
2022/07/14 10:12:42;;;;;;;4.22;1.83;;;33.30;60.10;;;;;;5072426;28;20044;-73
2022/07/14 10:15:10;;;;;;;1.85;1.27;;;33.50;60.40;;;;;;5080055;28;20039;-73
2022/07/14 10:17:39;;;;;;;2.17;1.40;;;33.50;61.50;;;;;;5053419;28;20521;-74
2022/07/14 10:20:08;;;;;;;2.88;1.40;;;33.60;58.90;;;;;;5071498;28;20047;-74
2022/07/14 10:22:35;;;;;;;8.05;1.58;;;33.40;60.40;;;;;;5071838;28;20076;-73
2022/07/14 10:25:03;;;;;;;3.35;1.70;;;33.40;62.20;;;;;;5071386;28;20466;-74
2022/07/14 10:27:30;;;;;;;3.88;1.52;;;33.40;61.30;;;;;;5070044;28;20414;-75
2022/07/14 10:29:57;;;;;;;4.22;1.60;;;33.30;59.70;;;;;;5070497;28;20067;-75
2022/07/14 10:32:56;;;;;;;3.97;1.40;;;33.20;61.50;;;;;;5072892;28;20439;-75
2022/07/14 10:35:40;;;;;;;6.43;1.93;;;33.10;63.20;;;;;;5071071;28;20040;-74
2022/07/14 10:38:18;;;;;;;5.20;1.67;;;32.90;60.70;;;;;;5071184;28;20487;-77
2022/07/14 10:41:13;;;;;;;4.85;1.60;;;33.30;61.90;;;;;;5070782;28;20510;-77
2022/07/14 10:44:09;;;;;;;3.47;1.73;;;32.80;59.90;;;;;;5069653;28;20048;-74
2022/07/14 10:46:42;;;;;;;3.63;1.85;;;33.20;62.70;;;;;;5071035;28;20048;-76
2022/07/14 10:49:10;;;;;;;4.82;1.63;;;33.20;60.50;;;;;;5070415;28;20526;-74
2022/07/14 10:51:52;;;;;;;4.97;1.42;;;33.00;61.40;;;;;;5053399;28;20040;-76
2022/07/14 10:54:29;;;;;;;2.65;1.52;;;33.40;62.80;;;;;;5052627;28;20044;-75
2022/07/14 10:57:16;;;;;;;4.63;1.77;;;33.30;61.70;;;;;;5070185;28;20062;-76
2022/07/14 10:59:44;;;;;;;4.78;1.63;;;32.80;61.70;;;;;;5070665;28;20124;-76
2022/07/14 11:04:57;;;;;;;5.22;2.10;;;32.70;61.90;;;;;;5071847;28;20039;-79
2022/07/14 11:08:08;;;;;;;6.15;1.60;;;32.80;62.00;;;;;;5070359;28;20060;-77
2022/07/14 11:10:40;;;;;;;7.95;1.92;;;33.00;61.70;;;;;;5016413;28;20403;-77
2022/07/14 11:13:06;;;;;;;3.17;1.60;;;33.10;62.70;;;;;;5074414;28;20036;-77
2022/07/14 11:15:51;;;;;;;4.32;1.77;;;33.10;63.20;;;;;;5081391;28;20042;-76
2022/07/14 11:18:21;;;;;;;5.25;1.95;;;33.00;63.30;;;;;;5071804;28;20036;-76
2022/07/14 11:20:55;;;;;;;8.23;1.85;;;33.40;62.30;;;;;;5090215;28;20040;-77
2022/07/14 11:23:24;;;;;;;3.25;1.45;;;33.70;63.30;;;;;;5090434;28;20429;-77
2022/07/14 11:25:52;;;;;;;4.50;1.70;;;33.60;62.50;;;;;;5075100;28;20479;-77
2022/07/14 11:28:43;;;;;;;3.13;1.80;;;33.80;61.70;;;;;;5093802;28;20487;-76
2022/07/14 11:31:13;;;;;;;4.82;1.70;;;33.50;62.80;;;;;;5076475;28;20040;-77
2022/07/14 11:36:37;;;;;;;4.95;1.92;;;33.90;62.90;;;;;;5080902;28;20074;-76
2022/07/14 11:39:15;;;;;;;3.85;1.67;;;34.20;62.50;;;;;;5076338;28;20474;-77
2022/07/14 11:41:46;;;;;;;2.58;1.80;;;34.30;63.20;;;;;;5094219;28;20036;-76
2022/07/14 11:44:40;;;;;;;5.85;1.90;;;34.00;61.60;;;;;;5075340;28;20491;-75
2022/07/14 11:47:18;;;;;;;2.80;1.58;;;33.80;62.50;;;;;;5094629;28;20038;-76
2022/07/14 11:49:53;;;;;;;5.47;1.65;;;33.70;61.00;;;;;;5077037;28;20075;-76
2022/07/14 11:52:34;;;;;;;2.63;1.63;;;33.70;61.70;;;;;;5072834;28;20045;-75
2022/07/14 11:55:04;;;;;;;5.32;1.60;;;33.60;61.50;;;;;;5072905;28;20078;-76
2022/07/14 11:57:29;;;;;;;8.32;2.05;;;33.70;61.70;;;;;;5080731;28;20489;-76
2022/07/14 12:00:08;;;;;;;4.22;1.98;;;33.70;61.90;;;;;;5078733;28;20033;-77
2022/07/14 12:02:49;;;;;;;3.37;1.53;;;33.80;62.60;;;;;;5056923;28;20045;-75
2022/07/14 12:05:14;;;;;;;2.80;1.25;;;33.70;60.70;;;;;;5076076;28;20033;-75
2022/07/14 12:07:49;;;;;;;4.45;1.45;;;33.50;61.80;;;;;;5073481;28;20063;-76
2022/07/14 12:10:32;;;;;;;3.83;2.10;;;33.50;59.30;;;;;;5073861;28;20120;-77
2022/07/14 12:12:58;;;;;;;4.15;1.80;;;33.50;59.00;;;;;;5074471;28;20048;-76
2022/07/14 12:15:25;;;;;;;3.50;1.50;;;33.50;59.60;;;;;;5074554;28;20041;-78
2022/07/14 12:17:55;;;;;;;5.53;1.65;;;33.40;59.70;;;;;;5072131;28;20045;-76
2022/07/14 12:20:23;;;;;;;5.65;1.65;;;33.70;60.60;;;;;;5075594;28;20442;-77
2022/07/14 12:22:54;;;;;;;75.28;32.22;;;34.30;61.30;;;;;;5075962;28;20048;-77
2022/07/14 12:25:37;;;;;;;5.93;2.00;;;34.90;63.40;;;;;;5074914;28;20033;-78
2022/07/14 12:28:09;;;;;;;3.72;1.88;;;34.60;60.90;;;;;;5076148;28;20052;-78
2022/07/14 12:30:59;;;;;;;2.50;1.77;;;34.70;62.40;;;;;;5067573;28;20034;-78
2022/07/14 12:33:36;;;;;;;3.60;1.50;;;34.10;60.80;;;;;;5093382;28;20035;-79
2022/07/14 12:36:09;;;;;;;5.35;1.83;;;33.40;60.70;;;;;;5092785;28;20036;-79
2022/07/14 12:38:38;;;;;;;5.18;1.65;;;33.50;60.40;;;;;;5093563;28;20036;-79
2022/07/14 12:41:05;;;;;;;4.57;1.50;;;33.50;58.20;;;;;;5076573;28;20117;-77
2022/07/14 12:43:35;;;;;;;6.25;1.80;;;33.70;60.80;;;;;;5076897;28;20056;-77
2022/07/14 12:46:22;;;;;;;1.85;1.15;;;34.20;62.20;;;;;;5076151;28;20077;-81
2022/07/14 12:48:57;;;;;;;2.25;1.00;;;34.30;60.80;;;;;;5092628;28;20495;-78
2022/07/14 12:51:33;;;;;;;3.67;1.45;;;34.40;59.20;;;;;;5076150;28;20032;-78
2022/07/14 12:54:17;;;;;;;1.75;1.10;;;34.50;59.20;;;;;;5092531;28;20040;-81
2022/07/14 12:56:53;;;;;;;2.60;1.15;;;34.70;61.30;;;;;;5088529;28;20054;-83
2022/07/14 12:59:26;;;;;;;3.95;1.50;;;34.40;57.20;;;;;;5060093;28;20044;-84
2022/07/14 13:01:54;;;;;;;4.90;1.25;;;34.40;60.20;;;;;;5092272;28;20090;-86
2022/07/14 13:04:45;;;;;;;5.32;1.30;;;34.30;57.90;;;;;;5076420;28;20130;-80
2022/07/14 13:07:27;;;;;;;2.53;1.30;;;34.10;57.30;;;;;;5094815;28;20032;-75
2022/07/14 13:10:16;;;;;;;1.75;1.17;;;34.10;58.60;;;;;;5076529;28;20456;-83
2022/07/14 13:12:51;;;;;;;3.60;1.63;;;34.60;58.60;;;;;;5094527;28;20036;-81
2022/07/14 13:15:23;;;;;;;4.80;1.50;;;34.20;57.50;;;;;;5093394;28;20046;-83
2022/07/14 13:18:02;;;;;;;4.63;1.85;;;34.30;59.10;;;;;;5092247;28;20066;-83